L45 weather

Bakersfield Municipal Airport
Bakersfield, California, United States

Public forecast

Using degrees Fahrenheit for public forecast. Weather courtesy of forecast.io.

METAR (pilot weather report)

Closest report is Meadows Field, 7.2 nm (13.3 km) NNW. Retrieved 2018/01/20 17:54 UTC (35 minutes ago):

KBFL 201754Z 00000KT 10SM OVC032 09/04 A3019 RMK AO2 SLP221 T00890039 10089 20061 53027

TAF (pilot weather forecast)

Closest forecast is Meadows Field, 7.2 nm (13.3 km) NNW. Retrieved 2018/01/20 18:30 UTC (0 seconds ago):

TAF KBFL 201727Z 2018/2118 00000KT P6SM BKN035 BKN080 FM210300 VRB05KT P6SM SKC